sensor_id;sensor_type;location;lat;lon;timestamp;temperature;humidity
21508;DHT22;10915;54.352;9.074;2023-08-20T00:00:30;18.30;99.90
21508;DHT22;10915;54.352;9.074;2023-08-20T00:03:02;18.30;99.90
21508;DHT22;10915;54.352;9.074;2023-08-20T00:05:31;18.30;99.90
21508;DHT22;10915;54.352;9.074;2023-08-20T00:07:57;18.30;99.90
21508;DHT22;10915;54.352;9.074;2023-08-20T00:10:22;18.30;99.90
21508;DHT22;10915;54.352;9.074;2023-08-20T00:12:48;18.30;99.90
21508;DHT22;10915;54.352;9.074;2023-08-20T00:15:14;18.30;99.90
21508;DHT22;10915;54.352;9.074;2023-08-20T00:17:40;18.30;99.90
21508;DHT22;10915;54.352;9.074;2023-08-20T00:20:07;18.30;99.90
21508;DHT22;10915;54.352;9.074;2023-08-20T00:22:38;18.30;99.90
21508;DHT22;10915;54.352;9.074;2023-08-20T00:25:05;18.30;99.90
21508;DHT22;10915;54.352;9.074;2023-08-20T00:27:31;18.30;99.90
21508;DHT22;10915;54.352;9.074;2023-08-20T00:29:57;18.30;99.90
21508;DHT22;10915;54.352;9.074;2023-08-20T00:32:22;18.30;99.90
21508;DHT22;10915;54.352;9.074;2023-08-20T00:34:48;18.30;99.90
21508;DHT22;10915;54.352;9.074;2023-08-20T00:37:14;18.30;99.90
21508;DHT22;10915;54.352;9.074;2023-08-20T00:39:40;18.30;99.90
21508;DHT22;10915;54.352;9.074;2023-08-20T00:42:05;18.30;99.90
21508;DHT22;10915;54.352;9.074;2023-08-20T00:44:33;18.30;99.90
21508;DHT22;10915;54.352;9.074;2023-08-20T00:46:59;18.30;99.90
21508;DHT22;10915;54.352;9.074;2023-08-20T00:49:26;18.30;99.90
21508;DHT22;10915;54.352;9.074;2023-08-20T00:51:52;18.30;99.90
21508;DHT22;10915;54.352;9.074;2023-08-20T00:54:19;18.30;99.90
21508;DHT22;10915;54.352;9.074;2023-08-20T00:56:45;18.30;99.90
21508;DHT22;10915;54.352;9.074;2023-08-20T00:59:11;18.30;99.90
21508;DHT22;10915;54.352;9.074;2023-08-20T01:01:36;18.20;99.90
21508;DHT22;10915;54.352;9.074;2023-08-20T01:04:02;18.20;99.90
21508;DHT22;10915;54.352;9.074;2023-08-20T01:06:39;18.20;99.90
21508;DHT22;10915;54.352;9.074;2023-08-20T01:11:49;18.20;99.90
21508;DHT22;10915;54.352;9.074;2023-08-20T01:14:17;18.20;99.90
21508;DHT22;10915;54.352;9.074;2023-08-20T01:16:44;18.20;99.90
21508;DHT22;10915;54.352;9.074;2023-08-20T01:19:14;18.20;99.90
21508;DHT22;10915;54.352;9.074;2023-08-20T01:30:09;18.10;99.90
21508;DHT22;10915;54.352;9.074;2023-08-20T01:32:36;18.10;99.90
21508;DHT22;10915;54.352;9.074;2023-08-20T01:35:02;18.00;99.90
21508;DHT22;10915;54.352;9.074;2023-08-20T01:37:28;18.00;99.90
21508;DHT22;10915;54.352;9.074;2023-08-20T01:39:54;18.00;99.90
21508;DHT22;10915;54.352;9.074;2023-08-20T01:42:20;17.90;99.90
21508;DHT22;10915;54.352;9.074;2023-08-20T01:44:45;17.90;99.90
21508;DHT22;10915;54.352;9.074;2023-08-20T01:47:11;17.90;99.90
21508;DHT22;10915;54.352;9.074;2023-08-20T01:49:36;17.80;99.90
21508;DHT22;10915;54.352;9.074;2023-08-20T01:52:02;17.80;99.90
21508;DHT22;10915;54.352;9.074;2023-08-20T01:54:29;17.70;99.90
21508;DHT22;10915;54.352;9.074;2023-08-20T01:56:54;17.70;99.90
21508;DHT22;10915;54.352;9.074;2023-08-20T01:59:22;17.70;99.90
21508;DHT22;10915;54.352;9.074;2023-08-20T02:01:49;17.60;99.90
21508;DHT22;10915;54.352;9.074;2023-08-20T02:04:14;17.60;99.90
21508;DHT22;10915;54.352;9.074;2023-08-20T02:06:40;17.60;99.90
21508;DHT22;10915;54.352;9.074;2023-08-20T02:09:05;17.60;99.90
21508;DHT22;10915;54.352;9.074;2023-08-20T02:11:31;17.60;99.90
21508;DHT22;10915;54.352;9.074;2023-08-20T02:14:03;17.60;99.90
21508;DHT22;10915;54.352;9.074;2023-08-20T02:16:29;17.60;99.90
21508;DHT22;10915;54.352;9.074;2023-08-20T02:18:54;17.60;99.90
21508;DHT22;10915;54.352;9.074;2023-08-20T02:21:20;17.60;99.90
21508;DHT22;10915;54.352;9.074;2023-08-20T02:23:46;17.60;99.90
21508;DHT22;10915;54.352;9.074;2023-08-20T02:26:11;17.60;99.90
21508;DHT22;10915;54.352;9.074;2023-08-20T02:28:37;17.50;99.90
21508;DHT22;10915;54.352;9.074;2023-08-20T02:31:05;17.40;99.90
21508;DHT22;10915;54.352;9.074;2023-08-20T02:33:31;17.30;99.90
21508;DHT22;10915;54.352;9.074;2023-08-20T02:36:01;17.20;99.90
21508;DHT22;10915;54.352;9.074;2023-08-20T02:38:28;17.00;99.90
21508;DHT22;10915;54.352;9.074;2023-08-20T02:40:54;16.90;99.90
21508;DHT22;10915;54.352;9.074;2023-08-20T02:43:19;16.80;99.90
21508;DHT22;10915;54.352;9.074;2023-08-20T02:45:45;16.80;99.90
21508;DHT22;10915;54.352;9.074;2023-08-20T02:48:11;16.70;99.90
21508;DHT22;10915;54.352;9.074;2023-08-20T02:50:36;16.70;99.90
21508;DHT22;10915;54.352;9.074;2023-08-20T02:53:02;16.80;99.90
21508;DHT22;10915;54.352;9.074;2023-08-20T02:55:29;16.80;99.90
21508;DHT22;10915;54.352;9.074;2023-08-20T02:57:55;16.80;99.90
21508;DHT22;10915;54.352;9.074;2023-08-20T03:00:20;16.80;99.90
21508;DHT22;10915;54.352;9.074;2023-08-20T03:02:46;16.80;99.90
21508;DHT22;10915;54.352;9.074;2023-08-20T03:05:12;16.80;99.90
21508;DHT22;10915;54.352;9.074;2023-08-20T03:07:37;16.80;99.90
21508;DHT22;10915;54.352;9.074;2023-08-20T03:10:03;16.80;99.90
21508;DHT22;10915;54.352;9.074;2023-08-20T03:12:29;16.70;99.90
21508;DHT22;10915;54.352;9.074;2023-08-20T03:14:55;16.70;99.90
21508;DHT22;10915;54.352;9.074;2023-08-20T03:17:21;16.70;99.90
21508;DHT22;10915;54.352;9.074;2023-08-20T03:19:57;16.70;99.90
21508;DHT22;10915;54.352;9.074;2023-08-20T03:22:25;16.70;99.90
21508;DHT22;10915;54.352;9.074;2023-08-20T03:24:51;16.60;99.90
21508;DHT22;10915;54.352;9.074;2023-08-20T03:27:17;16.60;99.90
21508;DHT22;10915;54.352;9.074;2023-08-20T03:29:43;16.50;99.90
21508;DHT22;10915;54.352;9.074;2023-08-20T03:32:09;16.50;99.90
21508;DHT22;10915;54.352;9.074;2023-08-20T03:34:35;16.40;99.90
21508;DHT22;10915;54.352;9.074;2023-08-20T03:37:01;16.30;99.90
21508;DHT22;10915;54.352;9.074;2023-08-20T03:39:26;16.30;99.90
21508;DHT22;10915;54.352;9.074;2023-08-20T03:41:52;16.30;99.90
21508;DHT22;10915;54.352;9.074;2023-08-20T03:44:18;16.30;99.90
21508;DHT22;10915;54.352;9.074;2023-08-20T03:46:44;16.20;99.90
21508;DHT22;10915;54.352;9.074;2023-08-20T03:49:09;16.20;99.90
21508;DHT22;10915;54.352;9.074;2023-08-20T03:51:35;16.20;99.90
21508;DHT22;10915;54.352;9.074;2023-08-20T03:54:01;16.20;99.90
21508;DHT22;10915;54.352;9.074;2023-08-20T03:56:27;16.20;99.90
21508;DHT22;10915;54.352;9.074;2023-08-20T03:58:52;16.10;99.90
21508;DHT22;10915;54.352;9.074;2023-08-20T04:01:18;16.10;99.90
21508;DHT22;10915;54.352;9.074;2023-08-20T04:03:46;16.10;99.90
21508;DHT22;10915;54.352;9.074;2023-08-20T04:06:11;16.10;99.90
21508;DHT22;10915;54.352;9.074;2023-08-20T04:08:37;16.10;99.90
21508;DHT22;10915;54.352;9.074;2023-08-20T04:11:03;16.10;99.90
21508;DHT22;10915;54.352;9.074;2023-08-20T04:13:29;16.10;99.90
21508;DHT22;10915;54.352;9.074;2023-08-20T04:15:55;16.20;99.90
21508;DHT22;10915;54.352;9.074;2023-08-20T04:18:21;16.20;99.90
21508;DHT22;10915;54.352;9.074;2023-08-20T04:20:47;16.10;99.90
21508;DHT22;10915;54.352;9.074;2023-08-20T04:23:13;16.00;99.90
21508;DHT22;10915;54.352;9.074;2023-08-20T04:25:38;15.90;99.90
21508;DHT22;10915;54.352;9.074;2023-08-20T04:28:05;15.80;99.90
21508;DHT22;10915;54.352;9.074;2023-08-20T04:30:31;15.80;99.90
21508;DHT22;10915;54.352;9.074;2023-08-20T04:32:56;15.80;99.90
21508;DHT22;10915;54.352;9.074;2023-08-20T04:35:22;15.90;99.90
21508;DHT22;10915;54.352;9.074;2023-08-20T04:37:48;15.90;99.90
21508;DHT22;10915;54.352;9.074;2023-08-20T04:40:13;15.90;99.90
21508;DHT22;10915;54.352;9.074;2023-08-20T04:42:50;16.00;99.90
21508;DHT22;10915;54.352;9.074;2023-08-20T04:45:22;16.00;99.90
21508;DHT22;10915;54.352;9.074;2023-08-20T04:47:55;16.00;99.90
21508;DHT22;10915;54.352;9.074;2023-08-20T04:50:21;16.00;99.90
21508;DHT22;10915;54.352;9.074;2023-08-20T04:52:46;16.00;99.90
21508;DHT22;10915;54.352;9.074;2023-08-20T04:55:12;16.00;99.90
21508;DHT22;10915;54.352;9.074;2023-08-20T04:57:38;15.90;99.90
21508;DHT22;10915;54.352;9.074;2023-08-20T05:00:04;15.90;99.90
21508;DHT22;10915;54.352;9.074;2023-08-20T05:02:30;16.10;99.90
21508;DHT22;10915;54.352;9.074;2023-08-20T05:04:56;16.20;99.90
21508;DHT22;10915;54.352;9.074;2023-08-20T05:07:21;16.20;99.90
21508;DHT22;10915;54.352;9.074;2023-08-20T05:09:47;16.30;99.90
21508;DHT22;10915;54.352;9.074;2023-08-20T05:12:13;16.40;99.90
21508;DHT22;10915;54.352;9.074;2023-08-20T05:14:38;16.40;99.90
21508;DHT22;10915;54.352;9.074;2023-08-20T05:17:04;16.50;99.90
21508;DHT22;10915;54.352;9.074;2023-08-20T05:19:29;16.50;99.90
21508;DHT22;10915;54.352;9.074;2023-08-20T05:21:59;16.60;99.90
21508;DHT22;10915;54.352;9.074;2023-08-20T05:24:41;16.60;99.90
21508;DHT22;10915;54.352;9.074;2023-08-20T05:27:13;16.60;99.90
21508;DHT22;10915;54.352;9.074;2023-08-20T05:29:45;16.60;99.90
21508;DHT22;10915;54.352;9.074;2023-08-20T05:32:13;16.60;99.90
21508;DHT22;10915;54.352;9.074;2023-08-20T05:34:41;16.70;99.90
21508;DHT22;10915;54.352;9.074;2023-08-20T05:37:07;16.70;99.90
21508;DHT22;10915;54.352;9.074;2023-08-20T05:39:43;16.70;99.90
21508;DHT22;10915;54.352;9.074;2023-08-20T05:42:09;16.80;99.90
21508;DHT22;10915;54.352;9.074;2023-08-20T05:44:34;16.80;99.90
21508;DHT22;10915;54.352;9.074;2023-08-20T05:47:01;16.80;99.90
21508;DHT22;10915;54.352;9.074;2023-08-20T05:49:28;16.90;99.90
21508;DHT22;10915;54.352;9.074;2023-08-20T05:51:53;17.00;99.90
21508;DHT22;10915;54.352;9.074;2023-08-20T05:54:19;17.00;99.90
21508;DHT22;10915;54.352;9.074;2023-08-20T05:56:45;17.10;99.90
21508;DHT22;10915;54.352;9.074;2023-08-20T05:59:10;17.20;99.90
21508;DHT22;10915;54.352;9.074;2023-08-20T06:01:36;17.30;99.90
21508;DHT22;10915;54.352;9.074;2023-08-20T06:04:02;17.40;99.90
21508;DHT22;10915;54.352;9.074;2023-08-20T06:06:28;17.50;99.90
21508;DHT22;10915;54.352;9.074;2023-08-20T06:08:54;17.60;99.90
21508;DHT22;10915;54.352;9.074;2023-08-20T06:11:20;17.70;99.90
21508;DHT22;10915;54.352;9.074;2023-08-20T06:13:46;17.80;99.90
21508;DHT22;10915;54.352;9.074;2023-08-20T06:16:12;18.00;99.90
21508;DHT22;10915;54.352;9.074;2023-08-20T06:18:38;18.10;99.90
21508;DHT22;10915;54.352;9.074;2023-08-20T06:21:04;18.20;99.90
21508;DHT22;10915;54.352;9.074;2023-08-20T06:23:30;18.30;99.90
21508;DHT22;10915;54.352;9.074;2023-08-20T06:25:55;18.40;99.90
21508;DHT22;10915;54.352;9.074;2023-08-20T06:28:21;18.50;99.90
21508;DHT22;10915;54.352;9.074;2023-08-20T06:30:47;18.60;99.90
21508;DHT22;10915;54.352;9.074;2023-08-20T06:33:13;18.70;99.90
21508;DHT22;10915;54.352;9.074;2023-08-20T06:35:39;18.80;99.90
21508;DHT22;10915;54.352;9.074;2023-08-20T06:38:05;18.90;99.90
21508;DHT22;10915;54.352;9.074;2023-08-20T06:40:40;19.10;99.90
21508;DHT22;10915;54.352;9.074;2023-08-20T06:43:29;19.20;99.90
21508;DHT22;10915;54.352;9.074;2023-08-20T06:45:55;19.20;99.90
21508;DHT22;10915;54.352;9.074;2023-08-20T06:48:21;19.30;99.90
21508;DHT22;10915;54.352;9.074;2023-08-20T06:51:28;19.40;99.90
21508;DHT22;10915;54.352;9.074;2023-08-20T06:53:53;19.60;99.90
21508;DHT22;10915;54.352;9.074;2023-08-20T06:56:35;19.70;99.90
21508;DHT22;10915;54.352;9.074;2023-08-20T06:59:04;19.80;99.90
21508;DHT22;10915;54.352;9.074;2023-08-20T07:01:30;19.90;99.90
21508;DHT22;10915;54.352;9.074;2023-08-20T07:03:56;20.10;99.90
21508;DHT22;10915;54.352;9.074;2023-08-20T07:10:13;20.20;99.90
21508;DHT22;10915;54.352;9.074;2023-08-20T07:12:39;20.30;99.90
21508;DHT22;10915;54.352;9.074;2023-08-20T07:15:10;20.30;99.90
21508;DHT22;10915;54.352;9.074;2023-08-20T07:17:57;20.50;99.90
21508;DHT22;10915;54.352;9.074;2023-08-20T07:20:27;20.60;99.90
21508;DHT22;10915;54.352;9.074;2023-08-20T07:22:56;20.70;99.90
21508;DHT22;10915;54.352;9.074;2023-08-20T07:25:29;20.80;99.90
21508;DHT22;10915;54.352;9.074;2023-08-20T07:27:58;20.80;99.90
21508;DHT22;10915;54.352;9.074;2023-08-20T07:30:25;20.80;99.90
21508;DHT22;10915;54.352;9.074;2023-08-20T07:32:51;20.80;99.90
21508;DHT22;10915;54.352;9.074;2023-08-20T07:35:17;20.70;99.90
21508;DHT22;10915;54.352;9.074;2023-08-20T07:37:43;20.70;99.90
21508;DHT22;10915;54.352;9.074;2023-08-20T07:40:09;20.80;99.90
21508;DHT22;10915;54.352;9.074;2023-08-20T07:42:36;21.00;99.90
21508;DHT22;10915;54.352;9.074;2023-08-20T07:45:02;21.10;99.90
21508;DHT22;10915;54.352;9.074;2023-08-20T07:47:28;21.10;99.90
21508;DHT22;10915;54.352;9.074;2023-08-20T07:49:55;21.00;99.90
21508;DHT22;10915;54.352;9.074;2023-08-20T07:52:20;21.20;99.90
21508;DHT22;10915;54.352;9.074;2023-08-20T07:54:46;21.20;99.90
21508;DHT22;10915;54.352;9.074;2023-08-20T07:57:12;21.30;99.90
21508;DHT22;10915;54.352;9.074;2023-08-20T07:59:38;21.30;99.90
21508;DHT22;10915;54.352;9.074;2023-08-20T08:02:04;21.40;99.90
21508;DHT22;10915;54.352;9.074;2023-08-20T08:04:29;21.40;99.90
21508;DHT22;10915;54.352;9.074;2023-08-20T08:06:55;21.40;99.90
21508;DHT22;10915;54.352;9.074;2023-08-20T08:09:29;21.40;99.90
21508;DHT22;10915;54.352;9.074;2023-08-20T08:11:55;21.50;99.90
21508;DHT22;10915;54.352;9.074;2023-08-20T08:14:20;21.60;99.90
21508;DHT22;10915;54.352;9.074;2023-08-20T08:16:46;21.80;99.90
21508;DHT22;10915;54.352;9.074;2023-08-20T08:19:15;21.90;99.90
21508;DHT22;10915;54.352;9.074;2023-08-20T08:21:41;22.00;99.90
21508;DHT22;10915;54.352;9.074;2023-08-20T08:24:07;22.00;99.90
21508;DHT22;10915;54.352;9.074;2023-08-20T08:26:34;22.10;99.90
21508;DHT22;10915;54.352;9.074;2023-08-20T08:29:01;22.20;99.90
21508;DHT22;10915;54.352;9.074;2023-08-20T08:31:26;22.20;99.90
21508;DHT22;10915;54.352;9.074;2023-08-20T08:33:52;22.30;99.90
21508;DHT22;10915;54.352;9.074;2023-08-20T08:36:18;22.40;99.90
21508;DHT22;10915;54.352;9.074;2023-08-20T08:38:44;22.40;99.90
21508;DHT22;10915;54.352;9.074;2023-08-20T08:41:11;22.40;99.90
21508;DHT22;10915;54.352;9.074;2023-08-20T08:43:38;22.40;99.90
21508;DHT22;10915;54.352;9.074;2023-08-20T08:46:14;22.50;99.90
21508;DHT22;10915;54.352;9.074;2023-08-20T08:48:44;22.50;99.90
21508;DHT22;10915;54.352;9.074;2023-08-20T08:51:11;22.60;99.90
21508;DHT22;10915;54.352;9.074;2023-08-20T08:53:36;22.60;99.90
21508;DHT22;10915;54.352;9.074;2023-08-20T08:56:03;22.60;99.90
21508;DHT22;10915;54.352;9.074;2023-08-20T08:58:32;22.70;99.90
21508;DHT22;10915;54.352;9.074;2023-08-20T09:00:58;22.70;99.90
21508;DHT22;10915;54.352;9.074;2023-08-20T09:03:23;22.80;99.90
21508;DHT22;10915;54.352;9.074;2023-08-20T09:05:54;22.80;99.90
21508;DHT22;10915;54.352;9.074;2023-08-20T09:08:26;22.80;99.90
21508;DHT22;10915;54.352;9.074;2023-08-20T09:10:56;22.60;99.90
21508;DHT22;10915;54.352;9.074;2023-08-20T09:13:23;22.60;99.90
21508;DHT22;10915;54.352;9.074;2023-08-20T09:15:53;22.50;99.90
21508;DHT22;10915;54.352;9.074;2023-08-20T09:18:19;22.40;99.90
21508;DHT22;10915;54.352;9.074;2023-08-20T09:20:48;22.40;99.90
21508;DHT22;10915;54.352;9.074;2023-08-20T09:23:15;22.30;99.90
21508;DHT22;10915;54.352;9.074;2023-08-20T09:25:42;22.40;99.90
21508;DHT22;10915;54.352;9.074;2023-08-20T09:28:08;22.60;99.90
21508;DHT22;10915;54.352;9.074;2023-08-20T09:30:33;22.70;99.90
21508;DHT22;10915;54.352;9.074;2023-08-20T09:33:12;22.90;99.90
21508;DHT22;10915;54.352;9.074;2023-08-20T09:35:48;23.10;99.90
21508;DHT22;10915;54.352;9.074;2023-08-20T09:38:14;23.30;99.90
21508;DHT22;10915;54.352;9.074;2023-08-20T09:40:40;23.40;99.90
21508;DHT22;10915;54.352;9.074;2023-08-20T09:43:07;23.60;99.90
21508;DHT22;10915;54.352;9.074;2023-08-20T09:45:34;23.90;99.90
21508;DHT22;10915;54.352;9.074;2023-08-20T09:48:05;24.10;99.90
21508;DHT22;10915;54.352;9.074;2023-08-20T09:50:32;24.40;99.90
21508;DHT22;10915;54.352;9.074;2023-08-20T09:53:34;24.60;99.90
21508;DHT22;10915;54.352;9.074;2023-08-20T09:56:41;24.80;99.90
21508;DHT22;10915;54.352;9.074;2023-08-20T09:59:00;24.90;99.90
21508;DHT22;10915;54.352;9.074;2023-08-20T10:01:27;25.10;99.90
21508;DHT22;10915;54.352;9.074;2023-08-20T10:03:53;25.00;99.90
21508;DHT22;10915;54.352;9.074;2023-08-20T10:06:20;25.00;99.90
21508;DHT22;10915;54.352;9.074;2023-08-20T10:08:46;25.00;99.90
21508;DHT22;10915;54.352;9.074;2023-08-20T10:11:12;25.20;99.90
21508;DHT22;10915;54.352;9.074;2023-08-20T10:13:38;25.30;99.90
21508;DHT22;10915;54.352;9.074;2023-08-20T10:16:04;25.40;99.90
21508;DHT22;10915;54.352;9.074;2023-08-20T10:18:30;25.50;99.90
21508;DHT22;10915;54.352;9.074;2023-08-20T10:20:59;25.60;99.90
21508;DHT22;10915;54.352;9.074;2023-08-20T10:23:26;25.80;99.90
21508;DHT22;10915;54.352;9.074;2023-08-20T10:25:52;25.90;99.90
21508;DHT22;10915;54.352;9.074;2023-08-20T10:28:36;26.00;99.90
21508;DHT22;10915;54.352;9.074;2023-08-20T10:31:32;26.30;99.90
21508;DHT22;10915;54.352;9.074;2023-08-20T10:34:00;26.40;99.90
21508;DHT22;10915;54.352;9.074;2023-08-20T10:43:34;26.70;99.90
21508;DHT22;10915;54.352;9.074;2023-08-20T10:46:20;26.90;99.90
21508;DHT22;10915;54.352;9.074;2023-08-20T10:49:41;27.00;99.90
21508;DHT22;10915;54.352;9.074;2023-08-20T10:55:50;27.30;99.90
21508;DHT22;10915;54.352;9.074;2023-08-20T10:58:57;27.60;99.90
21508;DHT22;10915;54.352;9.074;2023-08-20T11:02:19;27.90;99.90
21508;DHT22;10915;54.352;9.074;2023-08-20T11:04:52;28.10;99.90
21508;DHT22;10915;54.352;9.074;2023-08-20T11:07:40;28.10;99.90
21508;DHT22;10915;54.352;9.074;2023-08-20T11:10:16;28.30;99.90
21508;DHT22;10915;54.352;9.074;2023-08-20T11:13:19;28.30;99.90
21508;DHT22;10915;54.352;9.074;2023-08-20T11:15:58;28.40;99.90
21508;DHT22;10915;54.352;9.074;2023-08-20T11:18:28;28.40;99.90
21508;DHT22;10915;54.352;9.074;2023-08-20T11:21:24;28.40;99.90
21508;DHT22;10915;54.352;9.074;2023-08-20T11:29:32;28.50;99.90
21508;DHT22;10915;54.352;9.074;2023-08-20T11:31:58;28.50;99.90
21508;DHT22;10915;54.352;9.074;2023-08-20T11:34:26;28.40;99.90
21508;DHT22;10915;54.352;9.074;2023-08-20T11:36:52;28.30;99.90
21508;DHT22;10915;54.352;9.074;2023-08-20T11:39:18;28.30;99.90
21508;DHT22;10915;54.352;9.074;2023-08-20T11:41:43;28.30;99.90
21508;DHT22;10915;54.352;9.074;2023-08-20T11:44:09;28.20;99.90
21508;DHT22;10915;54.352;9.074;2023-08-20T11:46:42;28.20;99.90
21508;DHT22;10915;54.352;9.074;2023-08-20T11:49:10;28.20;99.90
21508;DHT22;10915;54.352;9.074;2023-08-20T11:51:40;28.20;99.90
21508;DHT22;10915;54.352;9.074;2023-08-20T11:54:15;28.20;99.90
21508;DHT22;10915;54.352;9.074;2023-08-20T11:56:45;28.30;99.90
21508;DHT22;10915;54.352;9.074;2023-08-20T11:59:12;28.30;99.90
21508;DHT22;10915;54.352;9.074;2023-08-20T12:01:38;28.30;99.90
21508;DHT22;10915;54.352;9.074;2023-08-20T12:04:05;28.30;99.90
21508;DHT22;10915;54.352;9.074;2023-08-20T12:06:32;28.40;99.90
21508;DHT22;10915;54.352;9.074;2023-08-20T12:08:59;28.40;99.90
21508;DHT22;10915;54.352;9.074;2023-08-20T12:11:28;28.40;99.90
21508;DHT22;10915;54.352;9.074;2023-08-20T12:13:54;28.40;99.90
21508;DHT22;10915;54.352;9.074;2023-08-20T12:16:22;28.40;99.90
21508;DHT22;10915;54.352;9.074;2023-08-20T12:18:48;28.50;99.90
21508;DHT22;10915;54.352;9.074;2023-08-20T12:21:13;28.40;99.90
21508;DHT22;10915;54.352;9.074;2023-08-20T12:23:39;28.50;99.90
21508;DHT22;10915;54.352;9.074;2023-08-20T12:26:05;28.40;99.90
21508;DHT22;10915;54.352;9.074;2023-08-20T12:28:30;28.50;99.90
21508;DHT22;10915;54.352;9.074;2023-08-20T12:30:56;28.50;99.90
21508;DHT22;10915;54.352;9.074;2023-08-20T12:33:21;28.50;99.90
21508;DHT22;10915;54.352;9.074;2023-08-20T12:35:47;28.60;99.90
21508;DHT22;10915;54.352;9.074;2023-08-20T12:38:13;28.60;99.90
21508;DHT22;10915;54.352;9.074;2023-08-20T12:40:38;28.60;99.90
21508;DHT22;10915;54.352;9.074;2023-08-20T12:43:04;28.60;99.90
21508;DHT22;10915;54.352;9.074;2023-08-20T12:45:30;28.60;99.90
21508;DHT22;10915;54.352;9.074;2023-08-20T12:47:55;28.60;99.90
21508;DHT22;10915;54.352;9.074;2023-08-20T12:50:21;28.60;99.90
21508;DHT22;10915;54.352;9.074;2023-08-20T12:52:47;28.60;99.90
21508;DHT22;10915;54.352;9.074;2023-08-20T12:55:14;28.60;99.90
21508;DHT22;10915;54.352;9.074;2023-08-20T12:57:53;28.60;99.90
21508;DHT22;10915;54.352;9.074;2023-08-20T13:00:20;28.60;99.90
21508;DHT22;10915;54.352;9.074;2023-08-20T13:02:46;28.50;99.90
21508;DHT22;10915;54.352;9.074;2023-08-20T13:05:13;28.50;99.90
21508;DHT22;10915;54.352;9.074;2023-08-20T13:07:39;28.60;99.90
21508;DHT22;10915;54.352;9.074;2023-08-20T13:10:05;28.60;99.90
21508;DHT22;10915;54.352;9.074;2023-08-20T13:12:32;28.60;99.90
21508;DHT22;10915;54.352;9.074;2023-08-20T13:14:59;28.60;99.90
21508;DHT22;10915;54.352;9.074;2023-08-20T13:17:25;28.60;99.90
21508;DHT22;10915;54.352;9.074;2023-08-20T13:19:51;28.60;99.90
21508;DHT22;10915;54.352;9.074;2023-08-20T13:22:17;28.60;99.90
21508;DHT22;10915;54.352;9.074;2023-08-20T13:24:43;28.70;99.90
21508;DHT22;10915;54.352;9.074;2023-08-20T13:27:09;28.70;99.90
21508;DHT22;10915;54.352;9.074;2023-08-20T13:29:34;28.70;99.90
21508;DHT22;10915;54.352;9.074;2023-08-20T13:32:00;28.70;99.90
21508;DHT22;10915;54.352;9.074;2023-08-20T13:34:26;28.70;99.90
21508;DHT22;10915;54.352;9.074;2023-08-20T13:36:51;28.70;99.90
21508;DHT22;10915;54.352;9.074;2023-08-20T13:39:17;28.70;99.90
21508;DHT22;10915;54.352;9.074;2023-08-20T13:41:44;28.60;99.90
21508;DHT22;10915;54.352;9.074;2023-08-20T13:44:09;28.60;99.90
21508;DHT22;10915;54.352;9.074;2023-08-20T13:46:35;28.60;99.90
21508;DHT22;10915;54.352;9.074;2023-08-20T13:49:01;28.60;99.90
21508;DHT22;10915;54.352;9.074;2023-08-20T13:51:28;28.60;99.90
21508;DHT22;10915;54.352;9.074;2023-08-20T13:53:54;28.60;99.90
21508;DHT22;10915;54.352;9.074;2023-08-20T13:56:20;28.60;99.90
21508;DHT22;10915;54.352;9.074;2023-08-20T13:58:45;28.50;99.90
21508;DHT22;10915;54.352;9.074;2023-08-20T14:01:11;28.50;99.90
21508;DHT22;10915;54.352;9.074;2023-08-20T14:03:38;28.50;99.90
21508;DHT22;10915;54.352;9.074;2023-08-20T14:06:04;28.50;99.90
21508;DHT22;10915;54.352;9.074;2023-08-20T14:08:30;28.40;99.90
21508;DHT22;10915;54.352;9.074;2023-08-20T14:10:55;28.30;99.90
21508;DHT22;10915;54.352;9.074;2023-08-20T14:13:21;28.30;99.90
21508;DHT22;10915;54.352;9.074;2023-08-20T14:15:46;28.30;99.90
21508;DHT22;10915;54.352;9.074;2023-08-20T14:18:12;28.30;99.90
21508;DHT22;10915;54.352;9.074;2023-08-20T14:20:37;28.30;99.90
21508;DHT22;10915;54.352;9.074;2023-08-20T14:23:03;28.20;99.90
21508;DHT22;10915;54.352;9.074;2023-08-20T14:25:29;28.20;99.90
21508;DHT22;10915;54.352;9.074;2023-08-20T14:27:54;28.20;99.90
21508;DHT22;10915;54.352;9.074;2023-08-20T14:30:20;28.20;99.90
21508;DHT22;10915;54.352;9.074;2023-08-20T14:32:46;28.20;99.90
21508;DHT22;10915;54.352;9.074;2023-08-20T14:35:12;28.20;99.90
21508;DHT22;10915;54.352;9.074;2023-08-20T14:37:37;28.20;99.90
21508;DHT22;10915;54.352;9.074;2023-08-20T14:40:03;28.20;99.90
21508;DHT22;10915;54.352;9.074;2023-08-20T14:42:32;28.20;99.90
21508;DHT22;10915;54.352;9.074;2023-08-20T14:44:57;28.10;99.90
21508;DHT22;10915;54.352;9.074;2023-08-20T14:47:23;28.10;99.90
21508;DHT22;10915;54.352;9.074;2023-08-20T14:49:48;28.00;99.90
21508;DHT22;10915;54.352;9.074;2023-08-20T14:52:14;27.90;99.90
21508;DHT22;10915;54.352;9.074;2023-08-20T14:54:41;27.90;99.90
21508;DHT22;10915;54.352;9.074;2023-08-20T14:57:07;27.80;99.90
21508;DHT22;10915;54.352;9.074;2023-08-20T14:59:33;27.90;99.90
21508;DHT22;10915;54.352;9.074;2023-08-20T15:01:59;27.80;99.90
21508;DHT22;10915;54.352;9.074;2023-08-20T15:04:25;27.80;99.90
21508;DHT22;10915;54.352;9.074;2023-08-20T15:06:51;27.80;99.90
21508;DHT22;10915;54.352;9.074;2023-08-20T15:09:16;27.80;99.90
21508;DHT22;10915;54.352;9.074;2023-08-20T15:11:42;27.80;99.90
21508;DHT22;10915;54.352;9.074;2023-08-20T15:14:08;27.70;99.90
21508;DHT22;10915;54.352;9.074;2023-08-20T15:16:33;27.70;99.90
21508;DHT22;10915;54.352;9.074;2023-08-20T15:18:59;27.60;99.90
21508;DHT22;10915;54.352;9.074;2023-08-20T15:21:25;27.60;99.90
21508;DHT22;10915;54.352;9.074;2023-08-20T15:23:51;27.50;99.90
21508;DHT22;10915;54.352;9.074;2023-08-20T15:26:16;27.50;99.90
21508;DHT22;10915;54.352;9.074;2023-08-20T15:28:42;27.50;99.90
21508;DHT22;10915;54.352;9.074;2023-08-20T15:31:07;27.50;99.90
21508;DHT22;10915;54.352;9.074;2023-08-20T15:33:33;27.40;99.90
21508;DHT22;10915;54.352;9.074;2023-08-20T15:35:59;27.30;99.90
21508;DHT22;10915;54.352;9.074;2023-08-20T15:38:25;27.30;99.90
21508;DHT22;10915;54.352;9.074;2023-08-20T15:40:50;27.30;99.90
21508;DHT22;10915;54.352;9.074;2023-08-20T15:43:16;27.30;99.90
21508;DHT22;10915;54.352;9.074;2023-08-20T15:45:41;27.20;99.90
21508;DHT22;10915;54.352;9.074;2023-08-20T15:48:07;27.20;99.90
21508;DHT22;10915;54.352;9.074;2023-08-20T15:50:33;27.10;99.90
21508;DHT22;10915;54.352;9.074;2023-08-20T15:52:59;27.10;99.90
21508;DHT22;10915;54.352;9.074;2023-08-20T15:55:25;27.10;99.90
21508;DHT22;10915;54.352;9.074;2023-08-20T15:57:50;27.00;99.90
21508;DHT22;10915;54.352;9.074;2023-08-20T16:00:16;27.10;99.90
21508;DHT22;10915;54.352;9.074;2023-08-20T16:02:43;27.00;99.90
21508;DHT22;10915;54.352;9.074;2023-08-20T16:05:09;27.00;99.90